createdAt,value
2024-03-17T00:02:48.336Z,99053.95
2024-03-17T00:07:51.156Z,99057.80
2024-03-17T00:12:54.020Z,99058.64
2024-03-17T00:17:56.915Z,99062.06
2024-03-17T00:22:59.805Z,99062.42
2024-03-17T00:28:04.195Z,99067.77
2024-03-17T00:33:07.112Z,99068.86
2024-03-17T00:38:13.598Z,99074.48
2024-03-17T00:43:16.772Z,99083.33
2024-03-17T00:48:20.050Z,99089.80
2024-03-17T00:53:22.907Z,99098.48
2024-03-17T00:58:25.787Z,99110.42
2024-03-17T01:03:29.186Z,99116.29
2024-03-17T01:08:32.905Z,99120.05
2024-03-17T01:13:42.661Z,99126.48
2024-03-17T01:18:46.853Z,99134.33
2024-03-17T01:23:50.645Z,99141.02
2024-03-17T01:28:53.433Z,99132.46
2024-03-17T01:33:56.934Z,99140.16
2024-03-17T01:39:01.215Z,99152.98
2024-03-17T01:44:05.008Z,99162.48
2024-03-17T01:49:09.187Z,99163.58
2024-03-17T01:54:12.982Z,99169.78
2024-03-17T01:59:15.966Z,99178.80
2024-03-17T02:04:19.198Z,99189.29
2024-03-17T02:09:23.165Z,99199.02
2024-03-17T02:14:26.137Z,99212.77
2024-03-17T02:19:28.975Z,99232.25
2024-03-17T02:24:31.830Z,99243.98
2024-03-17T02:29:34.662Z,99254.16
2024-03-17T02:34:38.753Z,99264.14
2024-03-17T02:39:42.600Z,99272.46
2024-03-17T02:44:46.743Z,99280.31
2024-03-17T02:49:51.727Z,99291.40
2024-03-17T02:54:59.554Z,99296.45
2024-03-17T03:00:05.619Z,99300.44
2024-03-17T03:05:08.692Z,99308.14
2024-03-17T03:10:11.621Z,99308.29
2024-03-17T03:15:14.497Z,99315.27
2024-03-17T03:20:17.412Z,99317.27
2024-03-17T03:25:20.398Z,99319.01
2024-03-17T03:30:23.311Z,99317.60
2024-03-17T03:35:29.525Z,99318.13
2024-03-17T03:40:33.929Z,99327.00
2024-03-17T03:45:38.351Z,99330.85
2024-03-17T03:50:41.781Z,99334.60
2024-03-17T03:55:44.630Z,99341.05
2024-03-17T04:00:47.448Z,99348.25
2024-03-17T04:05:50.356Z,99346.61
2024-03-17T04:10:53.220Z,99355.11
2024-03-17T04:16:00.050Z,99356.02
2024-03-17T04:21:13.156Z,99363.88
2024-03-17T04:26:16.049Z,99361.81
2024-03-17T04:31:19.007Z,99355.45
2024-03-17T04:36:22.006Z,99363.76
2024-03-17T04:41:25.092Z,99363.20
2024-03-17T04:46:28.088Z,99375.09
2024-03-17T04:51:31.089Z,99380.20
2024-03-17T04:56:34.170Z,99388.18
2024-03-17T05:01:37.421Z,99386.77
2024-03-17T05:06:42.876Z,99398.16
2024-03-17T05:11:46.108Z,99407.00
2024-03-17T05:16:52.328Z,99410.88
2024-03-17T05:21:55.174Z,99418.70
2024-03-17T05:26:57.976Z,99420.27
2024-03-17T05:32:00.867Z,99426.20
2024-03-17T05:37:06.249Z,99430.38
2024-03-17T05:42:10.338Z,99440.06
2024-03-17T05:47:13.975Z,99442.55
2024-03-17T05:52:16.862Z,99444.25
2024-03-17T05:57:19.778Z,99450.73
2024-03-17T06:02:22.723Z,99457.84
2024-03-17T06:07:25.514Z,99462.42
2024-03-17T06:12:28.415Z,99466.07
2024-03-17T06:17:31.618Z,99464.77
2024-03-17T06:22:35.772Z,99466.55
2024-03-17T06:27:38.632Z,99464.56
2024-03-17T06:32:42.588Z,99467.92
2024-03-17T06:37:46.425Z,99475.54
2024-03-17T06:42:49.291Z,99483.68
2024-03-17T06:47:52.565Z,99480.12
2024-03-17T06:52:55.489Z,99487.20
2024-03-17T06:57:58.325Z,99491.61
2024-03-17T07:03:01.428Z,99491.14
2024-03-17T07:08:05.426Z,99488.94
2024-03-17T07:13:08.418Z,99487.40
2024-03-17T07:18:11.320Z,99485.52
2024-03-17T07:23:14.441Z,99482.04
2024-03-17T07:28:17.356Z,99479.75
2024-03-17T07:33:23.223Z,99471.57
2024-03-17T07:38:27.217Z,99468.44
2024-03-17T07:43:32.637Z,99471.03
2024-03-17T07:48:37.389Z,99474.09
2024-03-17T07:53:42.531Z,99482.86
2024-03-17T07:58:46.255Z,99487.70
2024-03-17T08:03:56.683Z,99487.92
2024-03-17T08:08:59.538Z,99485.20
2024-03-17T08:14:03.000Z,99485.22
2024-03-17T08:19:05.992Z,99484.56
2024-03-17T08:24:09.312Z,99483.14
2024-03-17T08:29:12.833Z,99484.86
2024-03-17T08:34:15.716Z,99493.59
2024-03-17T08:39:18.700Z,99492.43
2024-03-17T08:44:21.662Z,99489.88
2024-03-17T08:49:24.687Z,99488.89
2024-03-17T08:54:27.523Z,99482.17
2024-03-17T08:59:30.364Z,99475.52
2024-03-17T09:04:33.439Z,99478.31
2024-03-17T09:09:36.262Z,99476.32
2024-03-17T09:14:39.258Z,99470.38
2024-03-17T09:19:43.663Z,99469.48
2024-03-17T09:24:47.332Z,99466.11
2024-03-17T09:29:50.153Z,99464.69
2024-03-17T09:34:53.105Z,99462.89
2024-03-17T09:39:58.229Z,99466.94
2024-03-17T09:45:02.118Z,99458.92
2024-03-17T09:50:06.562Z,99460.95
2024-03-17T09:55:15.786Z,99453.98
2024-03-17T10:00:19.315Z,99458.59
2024-03-17T10:05:26.820Z,99451.04
2024-03-17T10:10:29.695Z,99445.08
2024-03-17T10:15:33.123Z,99445.82
2024-03-17T10:20:36.018Z,99436.35
2024-03-17T10:25:41.776Z,99434.54
2024-03-17T10:30:58.188Z,99428.84
2024-03-17T10:36:02.985Z,99415.85
2024-03-17T10:41:07.106Z,99411.86
2024-03-17T10:46:15.513Z,99412.73
2024-03-17T10:51:19.546Z,99415.05
2024-03-17T10:56:25.297Z,99412.27
2024-03-17T11:01:28.021Z,99414.90
2024-03-17T11:06:31.008Z,99405.36
2024-03-17T11:11:39.000Z,99408.44
2024-03-17T11:16:41.842Z,99404.94
2024-03-17T11:21:45.148Z,99392.02
2024-03-17T11:26:48.013Z,99389.48
2024-03-17T11:31:56.233Z,99398.63
2024-03-17T11:37:00.918Z,99397.41
2024-03-17T11:42:11.700Z,99391.73
2024-03-17T11:47:14.400Z,99388.11
2024-03-17T11:52:17.791Z,99386.22
2024-03-17T11:57:23.919Z,99369.02
2024-03-17T12:02:28.966Z,99362.42
2024-03-17T12:07:45.508Z,99352.10
2024-03-17T12:12:50.946Z,99348.91
2024-03-17T12:17:54.590Z,99347.17
2024-03-17T12:22:58.838Z,99342.84
2024-03-17T12:28:02.065Z,99334.20
2024-03-17T12:33:05.877Z,99333.55
2024-03-17T12:38:22.871Z,99328.41
2024-03-17T12:43:27.570Z,99318.58
2024-03-17T12:48:30.742Z,99316.80
2024-03-17T12:53:34.078Z,99313.15
2024-03-17T12:58:55.095Z,99308.91
2024-03-17T13:04:08.116Z,99309.59
2024-03-17T13:09:11.433Z,99303.89
2024-03-17T13:14:18.412Z,99305.37
2024-03-17T13:19:23.516Z,99303.35
2024-03-17T13:24:26.571Z,99306.48
2024-03-17T13:29:29.322Z,99304.10
2024-03-17T13:34:32.461Z,99296.40
2024-03-17T13:39:35.610Z,99288.36
2024-03-17T13:44:38.441Z,99290.37
2024-03-17T13:49:41.588Z,99285.98
2024-03-17T13:54:44.653Z,99281.05
2024-03-17T13:59:49.605Z,99279.39
2024-03-17T14:04:52.393Z,99273.86
2024-03-17T14:09:55.274Z,99272.60
2024-03-17T14:14:58.358Z,99273.72
2024-03-17T14:20:01.238Z,99275.19
2024-03-17T14:25:08.467Z,99265.32
2024-03-17T14:30:14.513Z,99271.84
2024-03-17T14:35:19.138Z,99278.77
2024-03-17T14:40:24.980Z,99274.91
2024-03-17T14:45:28.136Z,99274.92
2024-03-17T14:50:31.055Z,99274.75
2024-03-17T14:55:34.586Z,99270.21
2024-03-17T15:00:37.521Z,99270.42
2024-03-17T15:05:40.768Z,99273.61
2024-03-17T15:10:43.640Z,99273.64
2024-03-17T15:15:48.163Z,99278.36
2024-03-17T15:20:54.648Z,99281.45
2024-03-17T15:26:10.858Z,99291.33
2024-03-17T15:31:14.235Z,99298.08
2024-03-17T15:36:17.337Z,99296.38
2024-03-17T15:41:20.109Z,99293.73
2024-03-17T15:46:23.455Z,99295.25
2024-03-17T15:51:28.679Z,99289.77
2024-03-17T15:56:34.710Z,99289.05
2024-03-17T16:01:37.537Z,99296.55
2024-03-17T16:06:40.917Z,99306.23
2024-03-17T16:11:43.810Z,99314.59
2024-03-17T16:16:46.864Z,99312.77
2024-03-17T16:21:49.990Z,99315.83
2024-03-17T16:26:55.464Z,99321.67
2024-03-17T16:31:59.991Z,99326.80
2024-03-17T16:37:03.085Z,99331.22
2024-03-17T16:42:06.500Z,99329.11
2024-03-17T16:47:29.867Z,99329.17
2024-03-17T16:52:33.954Z,99329.15
2024-03-17T16:57:37.702Z,99336.27
2024-03-17T17:02:45.351Z,99337.64
2024-03-17T17:07:48.346Z,99337.28
2024-03-17T17:12:51.430Z,99336.68
2024-03-17T17:17:58.187Z,99338.90
2024-03-17T17:23:01.521Z,99345.36
2024-03-17T17:28:05.385Z,99349.59
2024-03-17T17:33:08.777Z,99352.27
2024-03-17T17:38:11.807Z,99359.07
2024-03-17T17:43:14.740Z,99358.84
2024-03-17T17:48:18.537Z,99359.22
2024-03-17T17:53:21.690Z,99361.01
2024-03-17T17:58:25.726Z,99364.00
2024-03-17T18:03:29.108Z,99355.73
2024-03-17T18:08:34.001Z,99354.16
2024-03-17T18:13:37.004Z,99351.95
2024-03-17T18:18:42.979Z,99354.14
2024-03-17T18:23:45.970Z,99352.55
2024-03-17T18:28:51.715Z,99354.60
2024-03-17T18:33:57.724Z,99355.64
2024-03-17T18:39:00.727Z,99352.80
2024-03-17T18:44:05.149Z,99345.94
2024-03-17T18:49:11.698Z,99337.35
2024-03-17T18:54:14.563Z,99335.15
2024-03-17T18:59:20.326Z,99344.25
2024-03-17T19:04:23.424Z,99344.78
2024-03-17T19:09:28.385Z,99344.36
2024-03-17T19:14:31.374Z,99345.02
2024-03-17T19:19:34.375Z,99346.27
2024-03-17T19:24:37.341Z,99347.31
2024-03-17T19:29:41.410Z,99356.29
2024-03-17T19:34:44.960Z,99360.36
2024-03-17T19:39:48.026Z,99361.04
2024-03-17T19:44:51.105Z,99364.34
2024-03-17T19:49:54.011Z,99366.84
2024-03-17T19:54:57.498Z,99366.95
2024-03-17T20:00:01.440Z,99369.20
2024-03-17T20:05:14.713Z,99365.21
2024-03-17T20:10:18.742Z,99368.21
2024-03-17T20:15:24.376Z,99367.44
2024-03-17T20:20:28.575Z,99364.17
2024-03-17T20:25:33.427Z,99365.70
2024-03-17T20:30:36.567Z,99368.58
2024-03-17T20:35:41.668Z,99367.68
2024-03-17T20:40:45.573Z,99367.41
2024-03-17T20:45:48.654Z,99366.37
2024-03-17T20:50:51.947Z,99361.89
2024-03-17T20:55:54.961Z,99354.87
2024-03-17T21:00:59.188Z,99350.76
2024-03-17T21:06:03.807Z,99348.46
2024-03-17T21:11:07.813Z,99340.34
2024-03-17T21:16:11.230Z,99334.09
2024-03-17T21:21:14.129Z,99334.15
2024-03-17T21:26:17.224Z,99338.55
2024-03-17T21:31:20.142Z,99327.80
2024-03-17T21:36:24.207Z,99328.35
2024-03-17T21:41:27.275Z,99331.16
2024-03-17T21:46:30.232Z,99329.95
2024-03-17T21:51:33.095Z,99324.16
2024-03-17T21:56:35.960Z,99320.73
2024-03-17T22:01:38.902Z,99317.72
2024-03-17T22:06:42.218Z,99318.33
2024-03-17T22:11:45.673Z,99319.94
2024-03-17T22:16:49.038Z,99318.05
2024-03-17T22:21:51.746Z,99316.56
2024-03-17T22:26:54.698Z,99316.52
2024-03-17T22:31:57.448Z,99312.88
2024-03-17T22:37:00.550Z,99308.98
2024-03-17T22:42:05.764Z,99315.36
2024-03-17T22:47:09.111Z,99314.90
2024-03-17T22:52:11.879Z,99314.66
2024-03-17T22:57:15.193Z,99314.99
2024-03-17T23:02:18.069Z,99306.00
2024-03-17T23:07:21.378Z,99311.91
2024-03-17T23:12:24.520Z,99313.54
2024-03-17T23:17:27.293Z,99312.15
2024-03-17T23:22:30.203Z,99310.36
2024-03-17T23:27:33.038Z,99307.38
2024-03-17T23:32:39.856Z,99304.33
2024-03-17T23:37:42.773Z,99306.52
2024-03-17T23:42:45.758Z,99301.63
2024-03-17T23:47:49.025Z,99301.04
2024-03-17T23:52:52.132Z,99295.77
2024-03-17T23:57:54.997Z,99290.38
